Time;durP1;ratioP1;P1;durP2;ratioP2;P2;SDS_P1;SDS_P2;PMS_P1;PMS_P2;Temp;Humidity;BMP_temperature;BMP_pressure;BME280_temperature;BME280_humidity;BME280_pressure;Samples;Min_cycle;Max_cycle;Signal;HPM_P1;HPM_P2
2022/10/06 00:00:36;;;;;;;4.68;2.78;;;17.40;99.90;;;;;;5113084;28;20032;-81
2022/10/06 00:03:01;;;;;;;4.45;2.83;;;17.40;99.90;;;;;;5112768;28;20023;-81
2022/10/06 00:05:27;;;;;;;6.85;3.30;;;17.40;99.90;;;;;;5114003;28;20020;-82
2022/10/06 00:07:54;;;;;;;5.22;3.00;;;17.40;99.90;;;;;;5112978;28;20031;-81
2022/10/06 00:10:20;;;;;;;4.57;3.10;;;17.50;99.90;;;;;;5112438;28;20015;-81
2022/10/06 00:12:48;;;;;;;5.85;3.05;;;17.40;99.90;;;;;;5112913;28;20024;-82
2022/10/06 00:15:17;;;;;;;5.85;2.97;;;17.40;99.90;;;;;;5112830;28;20020;-82
2022/10/06 00:17:43;;;;;;;4.88;3.13;;;17.40;99.90;;;;;;5113237;28;20031;-81
2022/10/06 00:20:09;;;;;;;3.70;3.17;;;17.40;99.90;;;;;;5112806;28;20028;-82
2022/10/06 00:22:37;;;;;;;7.40;3.03;;;17.40;99.90;;;;;;5112816;28;20028;-82
2022/10/06 00:25:04;;;;;;;4.68;3.15;;;17.40;99.90;;;;;;5112379;28;20024;-81
2022/10/06 00:27:37;;;;;;;5.93;3.40;;;17.20;99.90;;;;;;5113425;28;20035;-81
2022/10/06 00:30:05;;;;;;;5.53;3.15;;;17.20;99.90;;;;;;5112915;28;20028;-82
2022/10/06 00:32:31;;;;;;;5.75;3.45;;;17.10;99.90;;;;;;5092521;28;20032;-82
2022/10/06 00:35:00;;;;;;;6.30;3.17;;;17.10;99.90;;;;;;5092084;28;20055;-82
2022/10/06 00:37:27;;;;;;;6.78;3.22;;;17.10;99.90;;;;;;5092489;28;20110;-82
2022/10/06 00:39:52;;;;;;;4.75;2.92;;;16.90;99.90;;;;;;5095209;28;20031;-82
2022/10/06 00:42:30;;;;;;;10.45;3.58;;;17.00;99.90;;;;;;5096289;28;20447;-82
2022/10/06 00:45:00;;;;;;;4.60;2.90;;;17.00;99.90;;;;;;5096445;28;20016;-82
2022/10/06 00:47:30;;;;;;;4.30;3.20;;;17.00;99.90;;;;;;5096641;28;20020;-81
2022/10/06 00:49:58;;;;;;;9.20;3.63;;;17.00;99.90;;;;;;5096706;28;20024;-81
2022/10/06 00:52:27;;;;;;;5.45;3.20;;;16.80;99.90;;;;;;5096208;28;20084;-82
2022/10/06 00:54:53;;;;;;;5.45;3.17;;;17.20;99.90;;;;;;5095832;28;20016;-81
2022/10/06 00:57:19;;;;;;;7.95;3.50;;;17.00;99.90;;;;;;5096431;28;20043;-82
2022/10/06 00:59:45;;;;;;;6.85;3.40;;;17.00;99.90;;;;;;5095567;28;20026;-82
2022/10/06 01:02:30;;;;;;;5.25;3.35;;;17.10;99.90;;;;;;5098134;28;20040;-82
2022/10/06 01:04:59;;;;;;;4.85;3.60;;;17.10;99.90;;;;;;5116696;28;20548;-81
2022/10/06 01:07:27;;;;;;;6.85;3.22;;;16.90;99.90;;;;;;5116288;28;20608;-81
2022/10/06 01:09:54;;;;;;;4.68;3.20;;;16.80;99.90;;;;;;5115874;28;20052;-81
2022/10/06 01:12:21;;;;;;;4.95;3.30;;;16.80;99.90;;;;;;5116267;28;20019;-82
2022/10/06 01:14:46;;;;;;;5.82;3.63;;;16.50;99.90;;;;;;5117315;28;20040;-81
2022/10/06 01:17:23;;;;;;;7.70;3.70;;;16.80;99.90;;;;;;5116753;28;20201;-82
2022/10/06 01:19:59;;;;;;;8.00;3.58;;;16.50;99.90;;;;;;5116283;28;20027;-82
2022/10/06 01:22:38;;;;;;;4.90;3.40;;;16.40;99.90;;;;;;5116099;28;20036;-82
2022/10/06 01:25:06;;;;;;;6.25;3.28;;;16.40;99.90;;;;;;5115964;28;20492;-81
2022/10/06 01:27:34;;;;;;;7.10;3.83;;;16.40;99.90;;;;;;5115983;28;20828;-81
2022/10/06 01:30:00;;;;;;;7.15;3.65;;;16.50;99.90;;;;;;5115725;28;20439;-81
2022/10/06 01:32:33;;;;;;;5.30;3.78;;;16.50;99.90;;;;;;5115723;28;20047;-82
2022/10/06 01:34:58;;;;;;;8.13;3.97;;;16.50;99.90;;;;;;5114854;28;20066;-82
2022/10/06 01:37:24;;;;;;;6.50;4.40;;;16.40;99.90;;;;;;5114968;28;20035;-81
2022/10/06 01:39:49;;;;;;;9.18;4.20;;;16.40;99.90;;;;;;5114380;28;20026;-81
2022/10/06 01:42:15;;;;;;;7.53;3.88;;;16.50;99.90;;;;;;5114321;28;20540;-81
2022/10/06 01:44:41;;;;;;;6.57;3.55;;;16.50;99.90;;;;;;5114414;28;20034;-81
2022/10/06 01:47:07;;;;;;;7.28;3.92;;;16.50;99.90;;;;;;5114542;28;20471;-82
2022/10/06 01:49:32;;;;;;;5.40;3.95;;;16.50;99.90;;;;;;5113891;28;20028;-81
2022/10/06 01:51:58;;;;;;;8.82;4.65;;;16.70;99.90;;;;;;5096180;28;20114;-81
2022/10/06 01:54:24;;;;;;;6.25;4.00;;;16.40;99.90;;;;;;5114173;28;20027;-82
2022/10/06 01:56:49;;;;;;;6.32;4.40;;;16.70;99.90;;;;;;5114279;28;20031;-81
2022/10/06 01:59:15;;;;;;;5.90;4.15;;;16.40;99.90;;;;;;5114082;28;20688;-82
2022/10/06 02:01:40;;;;;;;5.30;4.32;;;16.50;99.90;;;;;;5113870;28;20036;-81
2022/10/06 02:04:06;;;;;;;6.97;4.85;;;16.30;99.90;;;;;;5114102;28;20024;-81
2022/10/06 02:06:32;;;;;;;5.50;4.40;;;16.40;99.90;;;;;;5114098;28;20023;-81
2022/10/06 02:08:59;;;;;;;7.75;4.45;;;16.20;99.90;;;;;;5114026;28;20031;-81
2022/10/06 02:11:25;;;;;;;9.43;4.10;;;16.30;99.90;;;;;;5113737;28;20047;-81
2022/10/06 02:13:51;;;;;;;10.30;4.93;;;16.30;99.90;;;;;;5114235;28;20064;-81
2022/10/06 02:16:16;;;;;;;7.13;4.45;;;16.20;99.90;;;;;;5113821;28;20096;-81
2022/10/06 02:18:42;;;;;;;6.05;4.05;;;16.00;99.90;;;;;;5113977;28;20027;-81
2022/10/06 02:21:17;;;;;;;7.82;4.30;;;15.90;99.90;;;;;;5113724;28;20484;-81
2022/10/06 02:23:43;;;;;;;9.85;4.57;;;15.90;99.90;;;;;;5113787;28;20106;-82
2022/10/06 02:26:09;;;;;;;9.20;4.60;;;15.90;99.90;;;;;;5113777;28;20067;-81
2022/10/06 02:28:35;;;;;;;7.47;4.85;;;16.00;99.90;;;;;;5113934;28;20032;-81
2022/10/06 02:31:03;;;;;;;4.50;4.05;;;15.90;99.90;;;;;;5113540;28;20480;-81
2022/10/06 02:33:29;;;;;;;5.10;4.25;;;16.20;99.90;;;;;;5067167;28;1317699;-81
2022/10/06 02:35:55;;;;;;;10.27;5.13;;;15.80;99.90;;;;;;5114409;28;20032;-81
2022/10/06 02:38:22;;;;;;;7.88;4.90;;;15.90;99.90;;;;;;5114760;28;20464;-81
2022/10/06 02:40:49;;;;;;;5.57;4.70;;;15.80;99.90;;;;;;5114330;28;20035;-81
2022/10/06 02:43:14;;;;;;;6.55;4.40;;;15.70;99.90;;;;;;5114343;28;20491;-81
2022/10/06 02:45:42;;;;;;;10.85;5.22;;;15.60;99.90;;;;;;5114279;28;20027;-81
2022/10/06 02:48:10;;;;;;;7.10;4.82;;;15.80;99.90;;;;;;5114615;28;20020;-82
2022/10/06 02:50:38;;;;;;;9.55;5.40;;;15.50;99.90;;;;;;5114092;28;20036;-81
2022/10/06 02:53:07;;;;;;;9.45;5.03;;;15.60;99.90;;;;;;5114104;28;20030;-81
2022/10/06 02:55:34;;;;;;;10.57;5.28;;;15.50;99.90;;;;;;5114141;28;20027;-81
2022/10/06 02:57:59;;;;;;;8.15;5.30;;;15.50;99.90;;;;;;5114011;28;20100;-81
2022/10/06 03:00:25;;;;;;;6.75;4.93;;;15.50;99.90;;;;;;5113932;28;20536;-82
2022/10/06 03:02:52;;;;;;;7.05;4.95;;;15.50;99.90;;;;;;5113571;28;20039;-81
2022/10/06 03:05:18;;;;;;;8.80;5.55;;;15.40;99.90;;;;;;5113993;28;20084;-81
2022/10/06 03:07:44;;;;;;;5.93;5.25;;;15.60;99.90;;;;;;5114614;28;20017;-81
2022/10/06 03:10:10;;;;;;;7.68;5.22;;;15.60;99.90;;;;;;5113929;28;20475;-81
2022/10/06 03:12:35;;;;;;;6.72;5.32;;;15.50;99.90;;;;;;5113798;28;20031;-81
2022/10/06 03:15:01;;;;;;;7.25;5.20;;;15.60;99.90;;;;;;5113890;28;20020;-81
2022/10/06 03:17:26;;;;;;;8.00;5.30;;;15.40;99.90;;;;;;5114250;28;20032;-81
2022/10/06 03:19:54;;;;;;;7.55;5.65;;;15.70;99.90;;;;;;5113112;28;20100;-81
2022/10/06 03:22:20;;;;;;;8.23;5.20;;;15.30;99.90;;;;;;5113684;28;20031;-81
2022/10/06 03:24:45;;;;;;;8.93;5.68;;;15.30;99.90;;;;;;5113777;28;20038;-81
2022/10/06 03:27:11;;;;;;;9.52;5.40;;;15.50;99.90;;;;;;5113815;28;20053;-81
2022/10/06 03:29:37;;;;;;;11.45;5.22;;;15.30;99.90;;;;;;5113380;28;20043;-81
2022/10/06 03:32:02;;;;;;;9.10;5.85;;;15.10;99.90;;;;;;5113410;28;20030;-81
2022/10/06 03:34:28;;;;;;;8.13;6.45;;;15.10;99.90;;;;;;5112804;28;20109;-81
2022/10/06 03:36:54;;;;;;;8.88;6.68;;;15.20;99.90;;;;;;5113478;28;20102;-82
2022/10/06 03:39:19;;;;;;;10.15;6.88;;;15.10;99.90;;;;;;5113299;28;20020;-81
2022/10/06 03:41:45;;;;;;;11.02;7.40;;;15.10;99.90;;;;;;5113111;28;20035;-81
2022/10/06 03:44:14;;;;;;;10.13;6.90;;;15.00;99.90;;;;;;5115010;28;20028;-81
2022/10/06 03:46:39;;;;;;;10.10;6.80;;;15.20;99.90;;;;;;5113403;28;20019;-81
2022/10/06 03:49:05;;;;;;;11.23;7.15;;;15.10;99.90;;;;;;5113266;28;20526;-81
2022/10/06 03:51:37;;;;;;;11.50;7.00;;;15.20;99.90;;;;;;5113313;28;20387;-80
2022/10/06 03:54:03;;;;;;;11.18;7.65;;;15.00;99.90;;;;;;5113045;28;20430;-81
2022/10/06 03:56:29;;;;;;;9.73;7.00;;;15.00;99.90;;;;;;5113496;28;20039;-81
2022/10/06 03:58:58;;;;;;;11.18;6.90;;;15.10;99.90;;;;;;5112964;28;20027;-81
2022/10/06 04:01:28;;;;;;;10.73;6.95;;;15.20;99.90;;;;;;5113073;28;20368;-81
2022/10/06 04:03:56;;;;;;;13.77;7.35;;;15.40;99.90;;;;;;5112506;28;20023;-81
2022/10/06 04:06:23;;;;;;;11.02;6.50;;;15.40;99.90;;;;;;5112912;28;20485;-80
2022/10/06 04:08:50;;;;;;;9.15;7.10;;;15.40;99.90;;;;;;5113245;28;20023;-81
2022/10/06 04:11:24;;;;;;;9.23;6.10;;;15.30;99.90;;;;;;5112936;28;20027;-81
2022/10/06 04:13:59;;;;;;;10.70;6.57;;;15.40;99.90;;;;;;5113606;28;20020;-81
2022/10/06 04:16:28;;;;;;;6.88;6.20;;;15.40;99.90;;;;;;5112907;28;20073;-81
2022/10/06 04:18:56;;;;;;;7.95;6.07;;;15.20;99.90;;;;;;5094091;28;20094;-81
2022/10/06 04:21:23;;;;;;;8.85;6.57;;;15.20;99.90;;;;;;5112991;28;20089;-81
2022/10/06 04:23:50;;;;;;;7.88;5.90;;;15.20;99.90;;;;;;5113067;28;20023;-81
2022/10/06 04:26:18;;;;;;;11.50;5.85;;;15.50;99.90;;;;;;5112814;28;20081;-81
2022/10/06 04:28:45;;;;;;;10.05;5.70;;;15.10;99.90;;;;;;5112721;28;20016;-81
2022/10/06 04:31:24;;;;;;;8.88;5.75;;;15.20;99.90;;;;;;5112536;28;20024;-81
2022/10/06 04:33:54;;;;;;;8.63;6.40;;;15.20;99.90;;;;;;5112246;28;20032;-81
2022/10/06 04:36:23;;;;;;;8.05;6.50;;;15.00;99.90;;;;;;5112636;28;20062;-81
2022/10/06 04:38:50;;;;;;;9.43;5.80;;;14.80;99.90;;;;;;5112505;28;20016;-82
2022/10/06 04:41:17;;;;;;;11.15;6.78;;;14.80;99.90;;;;;;5112588;28;20031;-81
2022/10/06 04:43:47;;;;;;;6.53;5.82;;;14.80;99.90;;;;;;5112471;28;20028;-81
2022/10/06 04:46:13;;;;;;;11.63;6.38;;;14.60;99.90;;;;;;5112611;28;20384;-81
2022/10/06 04:48:39;;;;;;;9.13;6.60;;;14.40;99.90;;;;;;5112467;28;20076;-81
2022/10/06 04:51:06;;;;;;;8.75;6.80;;;14.20;99.90;;;;;;5112526;28;20098;-81
2022/10/06 04:53:33;;;;;;;11.27;6.82;;;14.30;99.90;;;;;;5112523;28;20547;-81
2022/10/06 04:56:09;;;;;;;7.70;6.80;;;14.40;99.90;;;;;;5094064;28;20023;-81
2022/10/06 04:58:39;;;;;;;10.35;7.43;;;14.40;99.90;;;;;;5112387;28;20031;-81
2022/10/06 05:01:16;;;;;;;10.27;7.53;;;14.40;99.90;;;;;;5111985;28;20032;-81
2022/10/06 05:03:44;;;;;;;11.55;8.15;;;14.40;99.90;;;;;;5112144;28;20024;-81
2022/10/06 05:06:13;;;;;;;10.65;8.07;;;14.40;99.90;;;;;;5112720;28;20030;-81
2022/10/06 05:08:39;;;;;;;10.10;7.93;;;14.40;99.90;;;;;;5112051;28;20026;-81
2022/10/06 05:11:10;;;;;;;11.30;7.50;;;14.40;99.90;;;;;;5112365;28;20028;-81
2022/10/06 05:13:36;;;;;;;13.80;8.13;;;14.40;99.90;;;;;;5112289;28;20028;-81
2022/10/06 05:16:09;;;;;;;14.55;8.70;;;14.30;99.90;;;;;;5112062;28;20030;-81
2022/10/06 05:18:35;;;;;;;8.77;7.88;;;14.50;99.90;;;;;;5112035;28;20065;-81
2022/10/06 05:21:04;;;;;;;11.13;7.57;;;14.30;99.90;;;;;;5112388;28;20027;-81
2022/10/06 05:23:31;;;;;;;10.30;7.93;;;14.20;99.90;;;;;;5112330;28;20050;-81
2022/10/06 05:25:57;;;;;;;13.00;8.00;;;14.20;99.90;;;;;;5115175;28;20110;-81
2022/10/06 05:28:24;;;;;;;10.05;7.55;;;14.20;99.90;;;;;;5115792;28;20475;-81
2022/10/06 05:31:04;;;;;;;10.20;7.10;;;14.50;99.90;;;;;;5115466;28;20051;-81
2022/10/06 05:33:32;;;;;;;11.43;7.38;;;14.00;99.90;;;;;;5115622;28;20089;-81
2022/10/06 05:36:03;;;;;;;11.65;7.35;;;13.90;99.90;;;;;;5116201;28;20024;-81
2022/10/06 05:38:29;;;;;;;9.18;7.22;;;13.80;99.90;;;;;;5115664;28;20055;-81
2022/10/06 05:41:09;;;;;;;7.93;7.00;;;13.90;99.90;;;;;;5115467;28;20094;-81
2022/10/06 05:43:35;;;;;;;13.68;7.68;;;14.10;99.90;;;;;;5115754;28;20015;-81
2022/10/06 05:46:03;;;;;;;15.57;8.30;;;14.00;99.90;;;;;;5115418;28;20031;-81
2022/10/06 05:48:29;;;;;;;9.02;7.45;;;14.00;99.90;;;;;;5115062;28;20035;-81
2022/10/06 05:51:03;;;;;;;11.60;7.82;;;14.10;99.90;;;;;;5115323;28;20034;-81
2022/10/06 05:53:31;;;;;;;10.75;8.80;;;14.40;99.90;;;;;;5115499;28;20042;-81
2022/10/06 05:56:11;;;;;;;11.25;8.75;;;14.10;99.90;;;;;;5115601;28;20020;-81
2022/10/06 05:58:39;;;;;;;13.43;9.15;;;14.10;99.90;;;;;;5115015;28;20031;-81
2022/10/06 06:01:09;;;;;;;11.48;8.02;;;14.10;99.90;;;;;;5115136;28;20114;-81
2022/10/06 06:03:35;;;;;;;14.52;7.80;;;14.20;99.90;;;;;;5114941;28;20426;-81
2022/10/06 06:06:01;;;;;;;9.85;7.53;;;14.20;99.90;;;;;;5115011;28;20038;-81
2022/10/06 06:08:27;;;;;;;9.48;7.43;;;14.20;99.90;;;;;;5115215;28;20028;-81
2022/10/06 06:10:52;;;;;;;16.70;7.53;;;14.30;99.90;;;;;;5115228;28;20068;-81
2022/10/06 06:13:22;;;;;;;9.80;7.55;;;14.40;99.90;;;;;;5114550;28;20042;-81
2022/10/06 06:15:59;;;;;;;14.07;7.25;;;14.50;99.90;;;;;;5096571;28;20028;-81
2022/10/06 06:18:29;;;;;;;12.27;7.30;;;14.50;99.90;;;;;;5114833;28;20036;-81
2022/10/06 06:20:56;;;;;;;12.00;8.10;;;14.50;99.90;;;;;;5114991;28;20116;-81
2022/10/06 06:23:22;;;;;;;15.00;8.07;;;14.50;99.90;;;;;;5114815;28;20114;-81
2022/10/06 06:25:59;;;;;;;9.73;7.65;;;14.60;99.90;;;;;;5114664;28;20100;-81
2022/10/06 06:28:27;;;;;;;8.68;7.32;;;14.70;99.90;;;;;;5114430;28;20027;-81
2022/10/06 06:31:05;;;;;;;9.00;6.95;;;14.80;99.90;;;;;;5114521;28;20110;-81
2022/10/06 06:33:32;;;;;;;9.65;7.00;;;14.80;99.90;;;;;;5115782;28;20031;-81
2022/10/06 06:36:02;;;;;;;10.98;7.88;;;15.00;99.90;;;;;;5113998;28;20027;-81
2022/10/06 06:38:28;;;;;;;12.18;7.55;;;15.40;99.90;;;;;;5114639;28;20090;-81
2022/10/06 06:40:54;;;;;;;11.95;7.88;;;15.10;1.00;;;;;;5114503;28;20028;-80
2022/10/06 06:43:19;;;;;;;9.85;8.30;;;15.40;1.00;;;;;;5113932;28;20107;-80
2022/10/06 06:45:45;;;;;;;9.20;8.27;;;15.50;1.00;;;;;;5095861;28;20024;-80
2022/10/06 06:48:14;;;;;;;12.73;7.85;;;15.70;1.00;;;;;;5114613;28;20026;-79
2022/10/06 06:50:41;;;;;;;12.50;8.90;;;15.60;1.00;;;;;;5114254;28;20027;-79
2022/10/06 06:53:06;;;;;;;11.60;8.45;;;15.70;1.00;;;;;;5114260;28;20032;-79
2022/10/06 06:55:32;;;;;;;12.07;8.80;;;15.80;1.00;;;;;;5114347;28;20434;-80
2022/10/06 06:57:57;;;;;;;12.77;8.68;;;15.50;1.00;;;;;;5113599;28;20032;-80
2022/10/06 07:00:23;;;;;;;12.13;7.90;;;15.70;1.00;;;;;;5114048;28;20031;-80
2022/10/06 07:02:54;;;;;;;9.93;8.32;;;16.00;1.00;;;;;;5113636;28;20042;-80
2022/10/06 07:05:21;;;;;;;12.45;9.30;;;16.00;1.00;;;;;;5114280;28;20027;-80
2022/10/06 07:07:47;;;;;;;10.75;8.68;;;15.80;1.00;;;;;;5113695;28;20395;-79
2022/10/06 07:10:12;;;;;;;12.05;8.30;;;16.10;1.00;;;;;;5114603;28;20023;-79
2022/10/06 07:12:38;;;;;;;20.20;8.55;;;16.20;1.00;;;;;;5113556;28;20032;-78
2022/10/06 07:26:04;;;;;;;14.23;8.30;;;16.40;1.00;;;;;;5113668;28;20030;-80
2022/10/06 07:28:30;;;;;;;10.23;8.93;;;16.50;1.00;;;;;;5113641;28;20406;-79
2022/10/06 07:30:59;;;;;;;10.32;8.57;;;16.70;1.00;;;;;;5113273;28;20020;-80
2022/10/06 07:33:27;;;;;;;10.93;7.97;;;17.00;1.00;;;;;;5113059;28;20074;-79
2022/10/06 07:35:53;;;;;;;9.88;7.53;;;16.90;1.00;;;;;;5113375;28;20023;-80
2022/10/06 07:38:24;;;;;;;11.60;8.13;;;17.10;1.00;;;;;;5113594;28;20164;-79
2022/10/06 07:40:54;;;;;;;10.02;8.07;;;17.30;1.00;;;;;;5112781;28;20482;-79
2022/10/06 07:43:19;;;;;;;11.75;7.68;;;17.10;1.00;;;;;;5113247;28;20368;-80
2022/10/06 07:45:45;;;;;;;10.38;8.63;;;17.30;1.00;;;;;;5113237;28;20027;-80
2022/10/06 07:48:17;;;;;;;10.38;7.90;;;17.30;1.00;;;;;;5112699;28;20015;-80
2022/10/06 07:50:46;;;;;;;15.93;7.88;;;17.40;1.00;;;;;;5113077;28;20032;-80
2022/10/06 07:53:12;;;;;;;9.18;7.55;;;17.50;1.00;;;;;;5112913;28;20038;-80
2022/10/06 07:55:39;;;;;;;9.95;7.65;;;18.00;1.00;;;;;;5113189;28;20036;-80
2022/10/06 07:58:16;;;;;;;13.40;8.00;;;18.50;1.00;;;;;;5113164;28;20039;-79
2022/10/06 08:00:43;;;;;;;12.00;7.03;;;18.80;1.00;;;;;;5112794;28;20098;-80
2022/10/06 08:03:11;;;;;;;10.80;7.45;;;19.30;1.00;;;;;;5112765;28;20027;-80
2022/10/06 08:05:38;;;;;;;9.63;7.00;;;19.30;1.00;;;;;;5112781;28;20107;-79
2022/10/06 08:08:04;;;;;;;11.68;8.05;;;19.40;1.00;;;;;;5112797;28;20031;-80
2022/10/06 08:10:30;;;;;;;10.80;7.82;;;19.60;1.00;;;;;;5112403;28;20557;-80
2022/10/06 08:12:55;;;;;;;15.82;9.05;;;19.30;1.00;;;;;;5112708;28;20027;-79
2022/10/06 08:15:21;;;;;;;12.57;9.52;;;19.00;1.00;;;;;;5112640;28;20028;-80
2022/10/06 08:17:46;;;;;;;9.98;8.52;;;18.90;1.00;;;;;;5112519;28;20045;-79
2022/10/06 08:20:13;;;;;;;12.20;8.05;;;18.60;1.00;;;;;;5112827;28;20023;-79
2022/10/06 08:22:39;;;;;;;11.68;7.80;;;18.50;1.00;;;;;;5112611;28;20027;-79
2022/10/06 08:25:07;;;;;;;14.52;7.78;;;18.50;1.00;;;;;;5112263;28;20068;-80
2022/10/06 08:27:34;;;;;;;10.18;7.53;;;18.50;1.00;;;;;;5112707;28;20024;-80
2022/10/06 08:29:59;;;;;;;11.85;8.50;;;18.50;1.00;;;;;;5094331;28;20486;-80
2022/10/06 08:32:25;;;;;;;12.85;7.82;;;18.60;1.00;;;;;;5095487;28;20016;-80
2022/10/06 08:34:51;;;;;;;12.07;7.97;;;18.70;1.00;;;;;;5112527;28;20059;-79
2022/10/06 08:37:22;;;;;;;10.63;7.30;;;18.60;1.00;;;;;;5095131;28;20030;-80
2022/10/06 08:39:49;;;;;;;9.57;6.80;;;18.90;1.00;;;;;;5112142;28;20084;-80
2022/10/06 08:42:24;;;;;;;10.93;7.28;;;19.30;1.00;;;;;;5112679;28;20035;-80
2022/10/06 08:44:58;;;;;;;10.10;6.18;;;20.30;1.00;;;;;;5112262;28;20019;-79
2022/10/06 08:47:27;;;;;;;11.13;7.95;;;21.80;1.00;;;;;;5112522;28;20106;-80
2022/10/06 08:49:54;;;;;;;10.98;7.65;;;22.80;1.00;;;;;;5112370;28;20391;-80
2022/10/06 08:52:47;;;;;;;10.95;6.35;;;22.90;1.00;;;;;;5112463;28;20036;-80
2022/10/06 08:55:40;;;;;;;13.90;9.10;;;22.60;1.00;;;;;;5112701;28;20036;-80
2022/10/06 08:58:31;;;;;;;11.88;7.68;;;22.70;1.00;;;;;;5112515;28;20020;-80
2022/10/06 09:01:08;;;;;;;11.75;10.23;;;23.10;1.00;;;;;;5115346;28;20020;-80
2022/10/06 09:03:35;;;;;;;12.95;11.45;;;24.60;99.90;;;;;;5116169;28;20164;-80
2022/10/06 09:06:34;;;;;;;14.18;9.80;;;24.70;99.90;;;;;;5116185;28;20538;-80
2022/10/06 09:09:14;;;;;;;12.68;10.27;;;24.70;99.90;;;;;;5013000;28;20034;-80
2022/10/06 09:11:42;;;;;;;11.15;8.52;;;24.10;99.90;;;;;;5013511;28;20034;-80
2022/10/06 09:14:28;;;;;;;13.20;8.35;;;24.70;99.90;;;;;;5013401;28;20034;-80
2022/10/06 09:17:01;;;;;;;12.77;8.00;;;23.80;99.90;;;;;;5013606;28;20453;-80
2022/10/06 09:19:39;;;;;;;17.35;10.00;;;25.10;99.90;;;;;;5013521;28;20037;-80
2022/10/06 09:22:14;;;;;;;14.23;10.95;;;25.30;99.90;;;;;;5013469;28;20048;-80
2022/10/06 09:24:44;;;;;;;11.95;8.40;;;23.90;99.90;;;;;;4997019;28;20542;-80
2022/10/06 09:27:22;;;;;;;12.77;9.73;;;23.50;99.90;;;;;;5013669;28;20100;-80
2022/10/06 09:29:49;;;;;;;12.02;8.75;;;26.30;99.90;;;;;;5013325;28;20442;-80
2022/10/06 09:32:20;;;;;;;14.60;8.07;;;27.30;99.90;;;;;;5013210;28;20128;-80
2022/10/06 09:34:55;;;;;;;10.90;7.43;;;25.70;99.90;;;;;;5012858;28;20046;-80
2022/10/06 09:37:21;;;;;;;10.20;6.05;;;25.40;99.90;;;;;;5012803;28;20100;-80
2022/10/06 09:39:49;;;;;;;9.63;6.90;;;28.60;99.90;;;;;;5012891;28;20068;-80
2022/10/06 09:42:24;;;;;;;7.85;4.72;;;32.10;99.90;;;;;;5013307;28;20121;-80
2022/10/06 09:44:49;;;;;;;8.70;4.65;;;34.60;99.90;;;;;;5018124;28;20525;-80
2022/10/06 09:47:27;;;;;;;5.30;4.25;;;34.10;99.90;;;;;;5095052;28;20085;-80
2022/10/06 09:50:10;;;;;;;7.32;4.30;;;35.10;99.90;;;;;;5094868;28;20078;-80
2022/10/06 09:53:04;;;;;;;7.88;4.20;;;34.80;99.90;;;;;;5095365;28;20476;-80
2022/10/06 09:55:36;;;;;;;8.30;3.78;;;35.90;99.90;;;;;;5095489;28;20097;-80
2022/10/06 09:58:04;;;;;;;7.50;4.60;;;36.20;99.90;;;;;;5094841;28;20028;-80
2022/10/06 10:00:35;;;;;;;7.53;3.97;;;36.30;99.90;;;;;;5095681;28;20032;-80
2022/10/06 10:03:10;;;;;;;8.20;4.10;;;35.50;99.90;;;;;;5104061;28;20107;-80
2022/10/06 10:05:39;;;;;;;9.05;4.05;;;34.50;99.90;;;;;;5115269;28;20028;-80
2022/10/06 10:08:20;;;;;;;7.00;3.85;;;34.50;99.90;;;;;;5115037;28;20028;-80
2022/10/06 10:10:48;;;;;;;8.68;4.13;;;34.90;99.90;;;;;;5114739;28;20024;-80
2022/10/06 10:13:24;;;;;;;8.73;3.85;;;35.70;99.90;;;;;;5114787;28;20035;-80
2022/10/06 10:15:53;;;;;;;4.80;3.80;;;36.80;99.90;;;;;;5114983;28;20046;-80
2022/10/06 10:18:25;;;;;;;8.45;3.63;;;37.80;99.90;;;;;;5114829;28;20073;-80
2022/10/06 10:20:54;;;;;;;6.53;3.97;;;37.60;99.90;;;;;;5114404;28;20035;-80
2022/10/06 10:23:29;;;;;;;4.68;3.40;;;38.50;99.90;;;;;;5114699;28;20081;-81
2022/10/06 10:26:16;;;;;;;5.00;3.13;;;38.30;99.90;;;;;;5115066;28;20085;-80
2022/10/06 10:28:55;;;;;;;3.88;3.15;;;39.20;99.90;;;;;;5114648;28;20048;-81
2022/10/06 10:31:37;;;;;;;5.05;3.47;;;39.80;99.90;;;;;;5096564;28;20384;-80
2022/10/06 10:34:37;;;;;;;5.10;3.30;;;39.70;99.90;;;;;;5113877;28;20055;-80
2022/10/06 10:37:13;;;;;;;3.20;2.90;;;39.40;99.90;;;;;;5114490;28;20472;-80
2022/10/06 10:40:03;;;;;;;4.70;2.63;;;38.70;99.90;;;;;;5114342;28;20023;-81
2022/10/06 10:42:36;;;;;;;8.73;3.22;;;40.10;99.90;;;;;;5114446;28;20023;-81
2022/10/06 10:45:06;;;;;;;6.22;3.30;;;39.90;99.90;;;;;;5114273;28;20487;-80
2022/10/06 10:47:44;;;;;;;5.47;2.90;;;39.10;99.90;;;;;;5114348;28;20089;-81
2022/10/06 10:50:09;;;;;;;4.15;2.92;;;39.60;99.90;;;;;;5113911;28;20016;-80
2022/10/06 10:52:40;;;;;;;7.50;3.40;;;40.20;99.90;;;;;;5114259;28;20099;-81
2022/10/06 10:55:10;;;;;;;5.40;3.10;;;40.60;99.90;;;;;;5114140;28;20157;-81
2022/10/06 10:57:40;;;;;;;5.38;3.50;;;41.20;99.90;;;;;;5114098;28;20388;-81
2022/10/06 11:00:19;;;;;;;5.72;3.60;;;40.50;99.90;;;;;;5114572;28;20016;-81
2022/10/06 11:02:45;;;;;;;6.05;3.10;;;38.30;99.90;;;;;;5113520;28;20039;-81
2022/10/06 11:05:19;;;;;;;6.55;2.95;;;39.50;99.90;;;;;;5114003;28;20072;-80
2022/10/06 11:08:00;;;;;;;7.10;3.20;;;36.80;99.90;;;;;;5114389;28;20030;-80
2022/10/06 11:10:32;;;;;;;6.60;3.10;;;39.50;99.90;;;;;;5113614;28;20024;-81
2022/10/06 11:13:10;;;;;;;5.75;2.92;;;39.40;99.90;;;;;;5114533;28;20016;-81
2022/10/06 11:16:06;;;;;;;4.90;3.20;;;40.40;99.90;;;;;;5095561;28;20024;-80
2022/10/06 11:18:52;;;;;;;6.32;3.25;;;39.30;99.90;;;;;;5113223;28;20031;-81
2022/10/06 11:21:36;;;;;;;6.95;3.42;;;38.60;99.90;;;;;;5114678;28;20024;-81
2022/10/06 11:24:15;;;;;;;6.63;2.90;;;40.20;99.90;;;;;;5113631;28;20031;-81
2022/10/06 11:27:08;;;;;;;7.75;2.90;;;40.90;99.90;;;;;;5113653;28;20440;-81
2022/10/06 11:30:11;;;;;;;5.28;3.03;;;40.90;99.90;;;;;;5113576;28;20441;-81
2022/10/06 11:33:21;;;;;;;5.55;2.95;;;38.30;99.90;;;;;;5092818;28;20032;-81
2022/10/06 11:35:47;;;;;;;4.47;3.15;;;37.80;99.90;;;;;;5010896;28;20448;-80
2022/10/06 11:38:21;;;;;;;9.60;3.75;;;38.70;99.90;;;;;;5010856;28;20046;-81
2022/10/06 11:41:15;;;;;;;5.60;3.45;;;39.10;99.90;;;;;;5010939;28;20026;-81
2022/10/06 11:43:54;;;;;;;8.00;3.40;;;39.70;99.90;;;;;;5010740;28;20514;-81
2022/10/06 11:46:19;;;;;;;5.22;3.22;;;39.90;99.90;;;;;;5010964;28;20046;-84
2022/10/06 11:48:45;;;;;;;5.97;3.08;;;39.10;99.90;;;;;;5010822;28;20037;-84
2022/10/06 11:51:22;;;;;;;7.18;3.33;;;38.90;99.90;;;;;;5010760;28;20103;-84
2022/10/06 11:53:48;;;;;;;7.53;2.78;;;39.20;99.90;;;;;;5010794;28;20069;-84
2022/10/06 11:56:16;;;;;;;4.88;2.85;;;39.40;99.90;;;;;;5011150;28;20061;-83
2022/10/06 11:58:50;;;;;;;7.00;2.67;;;39.20;99.90;;;;;;5011106;28;20037;-84
2022/10/06 12:01:32;;;;;;;7.22;3.10;;;36.00;99.90;;;;;;5012865;28;20040;-83
2022/10/06 12:04:09;;;;;;;6.57;3.28;;;37.50;99.90;;;;;;5027145;28;20587;-84
2022/10/06 12:06:46;;;;;;;6.60;3.13;;;38.70;99.90;;;;;;5030543;28;20091;-83
2022/10/06 12:09:38;;;;;;;6.93;3.20;;;38.80;99.90;;;;;;5051857;28;20063;-84
2022/10/06 12:12:19;;;;;;;4.35;3.08;;;39.30;99.90;;;;;;5112989;28;20039;-84
2022/10/06 12:15:19;;;;;;;4.43;2.90;;;38.90;99.90;;;;;;5113336;28;20042;-84
2022/10/06 12:17:56;;;;;;;6.75;3.08;;;39.20;99.90;;;;;;5113184;28;20027;-84
2022/10/06 12:20:43;;;;;;;6.20;3.00;;;39.60;99.90;;;;;;5113345;28;20012;-84
2022/10/06 12:23:16;;;;;;;4.13;2.80;;;37.10;99.90;;;;;;5112646;28;20526;-84
2022/10/06 12:26:03;;;;;;;3.58;2.40;;;38.20;99.90;;;;;;5113324;28;20020;-84
2022/10/06 12:28:39;;;;;;;6.40;3.03;;;37.40;99.90;;;;;;5112553;28;20019;-83
2022/10/06 12:31:16;;;;;;;5.30;2.88;;;36.80;99.90;;;;;;5112587;28;20023;-84
2022/10/06 12:33:43;;;;;;;7.13;3.20;;;35.40;99.90;;;;;;5113286;28;20503;-83
2022/10/06 12:36:20;;;;;;;4.10;2.95;;;32.70;99.90;;;;;;5116811;28;20019;-84
2022/10/06 12:39:04;;;;;;;4.47;3.00;;;35.50;99.90;;;;;;5116832;28;20027;-84
2022/10/06 12:42:02;;;;;;;8.23;2.95;;;36.60;99.90;;;;;;5116593;28;20055;-83
2022/10/06 12:44:38;;;;;;;6.28;2.95;;;32.30;99.90;;;;;;5116358;28;20489;-83
2022/10/06 12:47:12;;;;;;;5.13;3.10;;;30.90;99.90;;;;;;5116464;28;20528;-83
2022/10/06 12:49:44;;;;;;;6.82;2.75;;;31.70;99.90;;;;;;5116539;28;20058;-83
2022/10/06 12:52:26;;;;;;;6.35;3.35;;;32.20;99.90;;;;;;5116378;28;20034;-84
2022/10/06 12:55:13;;;;;;;5.50;3.33;;;31.20;99.90;;;;;;5116516;28;20375;-84
2022/10/06 12:57:49;;;;;;;5.00;3.25;;;31.30;99.90;;;;;;5116737;28;20027;-83
2022/10/06 13:00:22;;;;;;;6.20;3.50;;;32.70;99.90;;;;;;5116163;28;20062;-83
2022/10/06 13:02:47;;;;;;;5.53;3.53;;;29.60;99.90;;;;;;5116193;28;20044;-83
2022/10/06 13:05:13;;;;;;;4.97;3.13;;;30.40;99.90;;;;;;5116240;28;20513;-83
2022/10/06 13:07:59;;;;;;;6.85;3.20;;;31.10;99.90;;;;;;5116147;28;20032;-83
2022/10/06 13:10:25;;;;;;;5.88;3.50;;;29.40;99.90;;;;;;5116131;28;20042;-83
2022/10/06 13:12:51;;;;;;;5.75;2.92;;;28.30;99.90;;;;;;5116188;28;20023;-83
2022/10/06 13:15:33;;;;;;;7.90;3.17;;;27.80;99.90;;;;;;5115890;28;20028;-84